sensor_id;sensor_type;location;lat;lon;timestamp;pressure;altitude;pressure_sealevel;temperature;humidity
20394;BME280;10356;50.544;9.642;2022-07-01T00:02:21;97966.03;;;19.24;74.64
20394;BME280;10356;50.544;9.642;2022-07-01T00:04:48;97975.06;;;19.29;74.08
20394;BME280;10356;50.544;9.642;2022-07-01T00:07:14;97971.41;;;19.16;75.15
20394;BME280;10356;50.544;9.642;2022-07-01T00:09:43;97983.22;;;19.05;75.44
20394;BME280;10356;50.544;9.642;2022-07-01T00:12:10;97974.06;;;18.93;77.13
20394;BME280;10356;50.544;9.642;2022-07-01T00:14:36;97979.16;;;18.95;77.27
20394;BME280;10356;50.544;9.642;2022-07-01T00:17:03;97980.00;;;18.95;77.09
20394;BME280;10356;50.544;9.642;2022-07-01T00:19:29;97966.88;;;18.87;77.52
20394;BME280;10356;50.544;9.642;2022-07-01T00:21:56;97976.09;;;18.69;78.71
20394;BME280;10356;50.544;9.642;2022-07-01T00:24:22;97971.63;;;18.69;78.73
20394;BME280;10356;50.544;9.642;2022-07-01T00:26:50;97970.94;;;18.75;78.15
20394;BME280;10356;50.544;9.642;2022-07-01T00:29:17;97963.72;;;18.69;78.21
20394;BME280;10356;50.544;9.642;2022-07-01T00:31:44;97971.81;;;18.68;77.55
20394;BME280;10356;50.544;9.642;2022-07-01T00:34:10;97980.56;;;18.68;77.39
20394;BME280;10356;50.544;9.642;2022-07-01T00:36:37;97986.31;;;18.72;77.18
20394;BME280;10356;50.544;9.642;2022-07-01T00:39:04;97985.13;;;18.74;77.24
20394;BME280;10356;50.544;9.642;2022-07-01T00:41:31;97988.75;;;18.73;76.35
20394;BME280;10356;50.544;9.642;2022-07-01T00:43:58;97997.31;;;18.75;75.50
20394;BME280;10356;50.544;9.642;2022-07-01T00:46:25;97996.41;;;18.68;75.49
20394;BME280;10356;50.544;9.642;2022-07-01T00:48:54;98005.44;;;18.74;75.19
20394;BME280;10356;50.544;9.642;2022-07-01T00:51:21;98011.91;;;18.63;75.31
20394;BME280;10356;50.544;9.642;2022-07-01T00:53:48;98033.03;;;18.63;75.42
20394;BME280;10356;50.544;9.642;2022-07-01T00:56:15;98041.72;;;18.41;76.02
20394;BME280;10356;50.544;9.642;2022-07-01T00:58:41;98045.63;;;18.14;76.79
20394;BME280;10356;50.544;9.642;2022-07-01T01:01:09;98046.84;;;17.96;77.08
20394;BME280;10356;50.544;9.642;2022-07-01T01:03:36;98045.53;;;17.92;76.92
20394;BME280;10356;50.544;9.642;2022-07-01T01:06:03;98054.91;;;17.94;76.86
20394;BME280;10356;50.544;9.642;2022-07-01T01:08:29;98057.13;;;17.67;77.79
20394;BME280;10356;50.544;9.642;2022-07-01T01:10:56;98050.88;;;17.59;78.17
20394;BME280;10356;50.544;9.642;2022-07-01T01:13:23;98059.97;;;17.49;78.14
20394;BME280;10356;50.544;9.642;2022-07-01T01:15:49;98061.41;;;17.35;78.47
20394;BME280;10356;50.544;9.642;2022-07-01T01:18:17;98067.69;;;17.34;78.53
20394;BME280;10356;50.544;9.642;2022-07-01T01:20:45;98056.81;;;17.29;78.96
20394;BME280;10356;50.544;9.642;2022-07-01T01:23:12;98074.75;;;17.18;79.35
20394;BME280;10356;50.544;9.642;2022-07-01T01:25:38;98070.63;;;17.07;79.47
20394;BME280;10356;50.544;9.642;2022-07-01T01:28:05;98082.34;;;17.05;79.55
20394;BME280;10356;50.544;9.642;2022-07-01T01:30:32;98071.63;;;16.98;80.04
20394;BME280;10356;50.544;9.642;2022-07-01T01:32:58;98065.53;;;16.98;80.05
20394;BME280;10356;50.544;9.642;2022-07-01T01:35:25;98062.56;;;16.93;80.69
20394;BME280;10356;50.544;9.642;2022-07-01T01:37:52;98065.34;;;16.99;80.27
20394;BME280;10356;50.544;9.642;2022-07-01T01:40:19;98065.03;;;16.86;80.78
20394;BME280;10356;50.544;9.642;2022-07-01T01:42:46;98061.41;;;16.95;80.62
20394;BME280;10356;50.544;9.642;2022-07-01T01:45:12;98059.75;;;16.86;81.02
20394;BME280;10356;50.544;9.642;2022-07-01T01:47:39;98052.84;;;16.85;81.08
20394;BME280;10356;50.544;9.642;2022-07-01T01:50:08;98057.44;;;16.91;80.88
20394;BME280;10356;50.544;9.642;2022-07-01T01:52:35;98061.41;;;16.87;80.89
20394;BME280;10356;50.544;9.642;2022-07-01T01:55:05;98055.81;;;16.82;81.58
20394;BME280;10356;50.544;9.642;2022-07-01T01:57:32;98061.56;;;16.77;81.80
20394;BME280;10356;50.544;9.642;2022-07-01T01:59:58;98071.25;;;16.77;82.28
20394;BME280;10356;50.544;9.642;2022-07-01T02:02:25;98077.16;;;16.79;82.41
20394;BME280;10356;50.544;9.642;2022-07-01T02:04:51;98077.81;;;16.73;82.98
20394;BME280;10356;50.544;9.642;2022-07-01T02:07:18;98078.94;;;16.62;83.51
20394;BME280;10356;50.544;9.642;2022-07-01T02:09:44;98076.00;;;16.65;83.66
20394;BME280;10356;50.544;9.642;2022-07-01T02:12:12;98086.03;;;16.62;83.67
20394;BME280;10356;50.544;9.642;2022-07-01T02:14:39;98081.06;;;16.59;83.62
20394;BME280;10356;50.544;9.642;2022-07-01T02:17:05;98075.31;;;16.55;83.99
20394;BME280;10356;50.544;9.642;2022-07-01T02:19:32;98082.22;;;16.56;84.98
20394;BME280;10356;50.544;9.642;2022-07-01T02:21:58;98078.72;;;16.48;85.75
20394;BME280;10356;50.544;9.642;2022-07-01T02:24:25;98086.75;;;16.46;87.36
20394;BME280;10356;50.544;9.642;2022-07-01T02:26:52;98082.97;;;16.41;87.78
20394;BME280;10356;50.544;9.642;2022-07-01T02:29:20;98078.00;;;16.30;89.92
20394;BME280;10356;50.544;9.642;2022-07-01T02:31:47;98072.38;;;16.25;89.96
20394;BME280;10356;50.544;9.642;2022-07-01T02:34:14;98076.44;;;16.11;91.18
20394;BME280;10356;50.544;9.642;2022-07-01T02:36:40;98062.50;;;16.19;91.15
20394;BME280;10356;50.544;9.642;2022-07-01T02:39:07;98061.50;;;16.12;91.82
20394;BME280;10356;50.544;9.642;2022-07-01T02:41:33;98067.22;;;16.07;91.96
20394;BME280;10356;50.544;9.642;2022-07-01T02:44:22;98072.09;;;16.02;92.97
20394;BME280;10356;50.544;9.642;2022-07-01T02:46:48;98073.56;;;15.96;94.08
20394;BME280;10356;50.544;9.642;2022-07-01T02:49:15;98074.91;;;16.01;93.26
20394;BME280;10356;50.544;9.642;2022-07-01T02:51:41;98072.06;;;15.94;93.92
20394;BME280;10356;50.544;9.642;2022-07-01T02:54:08;98082.75;;;15.92;94.22
20394;BME280;10356;50.544;9.642;2022-07-01T02:56:34;98083.19;;;15.88;95.12
20394;BME280;10356;50.544;9.642;2022-07-01T02:59:01;98089.63;;;15.85;96.19
20394;BME280;10356;50.544;9.642;2022-07-01T03:01:29;98096.47;;;15.78;96.56
20394;BME280;10356;50.544;9.642;2022-07-01T03:03:55;98101.41;;;15.81;96.64
20394;BME280;10356;50.544;9.642;2022-07-01T03:06:22;98104.03;;;15.81;95.54
20394;BME280;10356;50.544;9.642;2022-07-01T03:08:48;98094.19;;;15.83;95.55
20394;BME280;10356;50.544;9.642;2022-07-01T03:11:15;98089.09;;;15.82;95.84
20394;BME280;10356;50.544;9.642;2022-07-01T03:13:41;98085.28;;;15.76;95.23
20394;BME280;10356;50.544;9.642;2022-07-01T03:16:08;98095.44;;;15.71;94.90
20394;BME280;10356;50.544;9.642;2022-07-01T03:18:35;98096.72;;;15.67;94.81
20394;BME280;10356;50.544;9.642;2022-07-01T03:21:02;98107.91;;;15.69;95.90
20394;BME280;10356;50.544;9.642;2022-07-01T03:23:29;98104.78;;;15.74;96.54
20394;BME280;10356;50.544;9.642;2022-07-01T03:25:55;98101.31;;;15.65;95.48
20394;BME280;10356;50.544;9.642;2022-07-01T03:28:22;98102.66;;;15.69;94.48
20394;BME280;10356;50.544;9.642;2022-07-01T03:30:48;98103.38;;;15.79;94.49
20394;BME280;10356;50.544;9.642;2022-07-01T03:33:15;98099.75;;;15.80;94.35
20394;BME280;10356;50.544;9.642;2022-07-01T03:35:42;98098.63;;;15.83;93.06
20394;BME280;10356;50.544;9.642;2022-07-01T03:38:11;98120.66;;;15.90;93.39
20394;BME280;10356;50.544;9.642;2022-07-01T03:40:38;98121.50;;;15.90;93.26
20394;BME280;10356;50.544;9.642;2022-07-01T03:43:05;98121.19;;;15.93;93.11
20394;BME280;10356;50.544;9.642;2022-07-01T03:45:31;98127.13;;;15.95;93.10
20394;BME280;10356;50.544;9.642;2022-07-01T03:47:58;98118.44;;;16.03;92.50
20394;BME280;10356;50.544;9.642;2022-07-01T03:50:26;98129.47;;;16.07;93.22
20394;BME280;10356;50.544;9.642;2022-07-01T03:52:54;98131.75;;;16.02;93.04
20394;BME280;10356;50.544;9.642;2022-07-01T03:55:34;98133.91;;;16.06;92.97
20394;BME280;10356;50.544;9.642;2022-07-01T03:58:01;98138.69;;;16.11;92.53
20394;BME280;10356;50.544;9.642;2022-07-01T04:00:27;98129.81;;;16.04;93.09
20394;BME280;10356;50.544;9.642;2022-07-01T04:02:54;98119.41;;;16.02;91.75
20394;BME280;10356;50.544;9.642;2022-07-01T04:05:20;98116.44;;;15.97;91.42
20394;BME280;10356;50.544;9.642;2022-07-01T04:07:47;98137.09;;;15.92;91.50
20394;BME280;10356;50.544;9.642;2022-07-01T04:10:15;98143.06;;;16.02;92.02
20394;BME280;10356;50.544;9.642;2022-07-01T04:12:42;98153.78;;;16.09;90.97
20394;BME280;10356;50.544;9.642;2022-07-01T04:15:09;98148.38;;;16.10;89.98
20394;BME280;10356;50.544;9.642;2022-07-01T04:17:36;98142.94;;;16.04;89.81
20394;BME280;10356;50.544;9.642;2022-07-01T04:20:04;98135.00;;;15.95;90.01
20394;BME280;10356;50.544;9.642;2022-07-01T04:22:30;98141.72;;;15.98;90.39
20394;BME280;10356;50.544;9.642;2022-07-01T04:25:01;98148.88;;;16.06;90.12
20394;BME280;10356;50.544;9.642;2022-07-01T04:27:30;98161.00;;;16.07;89.82
20394;BME280;10356;50.544;9.642;2022-07-01T04:29:57;98179.41;;;16.07;89.45
20394;BME280;10356;50.544;9.642;2022-07-01T04:32:23;98185.28;;;16.01;88.77
20394;BME280;10356;50.544;9.642;2022-07-01T04:34:50;98178.06;;;16.03;89.17
20394;BME280;10356;50.544;9.642;2022-07-01T04:37:17;98193.84;;;16.03;88.95
20394;BME280;10356;50.544;9.642;2022-07-01T04:39:45;98202.78;;;15.92;89.05
20394;BME280;10356;50.544;9.642;2022-07-01T04:42:11;98202.50;;;15.95;89.76
20394;BME280;10356;50.544;9.642;2022-07-01T04:44:40;98194.47;;;15.96;90.08
20394;BME280;10356;50.544;9.642;2022-07-01T04:47:07;98204.69;;;16.00;89.33
20394;BME280;10356;50.544;9.642;2022-07-01T04:49:34;98207.00;;;16.03;88.06
20394;BME280;10356;50.544;9.642;2022-07-01T04:52:01;98206.16;;;16.02;88.21
20394;BME280;10356;50.544;9.642;2022-07-01T04:54:28;98209.25;;;15.98;88.77
20394;BME280;10356;50.544;9.642;2022-07-01T04:56:54;98218.16;;;16.05;88.53
20394;BME280;10356;50.544;9.642;2022-07-01T04:59:21;98212.56;;;16.00;87.83
20394;BME280;10356;50.544;9.642;2022-07-01T05:01:49;98207.31;;;16.00;87.81
20394;BME280;10356;50.544;9.642;2022-07-01T05:04:16;98199.25;;;16.01;86.81
20394;BME280;10356;50.544;9.642;2022-07-01T05:06:43;98199.72;;;15.96;86.55
20394;BME280;10356;50.544;9.642;2022-07-01T05:09:09;98206.09;;;15.94;86.67
20394;BME280;10356;50.544;9.642;2022-07-01T05:11:36;98197.34;;;15.85;86.70
20394;BME280;10356;50.544;9.642;2022-07-01T05:14:04;98204.75;;;15.90;84.84
20394;BME280;10356;50.544;9.642;2022-07-01T05:16:31;98213.41;;;15.82;85.31
20394;BME280;10356;50.544;9.642;2022-07-01T05:18:59;98211.72;;;15.73;85.14
20394;BME280;10356;50.544;9.642;2022-07-01T05:21:43;98218.25;;;15.69;84.90
20394;BME280;10356;50.544;9.642;2022-07-01T05:24:29;98222.50;;;15.70;84.43
20394;BME280;10356;50.544;9.642;2022-07-01T05:26:56;98223.41;;;15.61;84.99
20394;BME280;10356;50.544;9.642;2022-07-01T05:29:23;98224.16;;;15.54;85.27
20394;BME280;10356;50.544;9.642;2022-07-01T05:31:50;98229.63;;;15.60;85.81
20394;BME280;10356;50.544;9.642;2022-07-01T05:34:18;98231.66;;;15.66;86.25
20394;BME280;10356;50.544;9.642;2022-07-01T05:36:44;98225.81;;;15.72;85.99
20394;BME280;10356;50.544;9.642;2022-07-01T05:39:11;98227.88;;;15.86;85.32
20394;BME280;10356;50.544;9.642;2022-07-01T05:41:38;98221.97;;;15.84;84.23
20394;BME280;10356;50.544;9.642;2022-07-01T05:44:04;98227.34;;;16.01;83.78
20394;BME280;10356;50.544;9.642;2022-07-01T05:46:31;98235.28;;;16.09;83.52
20394;BME280;10356;50.544;9.642;2022-07-01T05:48:57;98249.81;;;16.21;82.42
20394;BME280;10356;50.544;9.642;2022-07-01T05:51:25;98257.09;;;16.27;83.20
20394;BME280;10356;50.544;9.642;2022-07-01T05:53:52;98257.47;;;16.32;83.26
20394;BME280;10356;50.544;9.642;2022-07-01T05:56:18;98260.84;;;16.42;83.12
20394;BME280;10356;50.544;9.642;2022-07-01T05:58:45;98266.66;;;16.28;82.48
20394;BME280;10356;50.544;9.642;2022-07-01T06:01:12;98272.22;;;16.25;82.89
20394;BME280;10356;50.544;9.642;2022-07-01T06:03:38;98264.59;;;16.39;81.88
20394;BME280;10356;50.544;9.642;2022-07-01T06:06:05;98253.69;;;16.52;81.54
20394;BME280;10356;50.544;9.642;2022-07-01T06:08:33;98250.16;;;16.69;81.34
20394;BME280;10356;50.544;9.642;2022-07-01T06:11:00;98249.53;;;16.75;79.79
20394;BME280;10356;50.544;9.642;2022-07-01T06:13:26;98242.59;;;16.66;79.70
20394;BME280;10356;50.544;9.642;2022-07-01T06:15:54;98249.19;;;16.70;80.61
20394;BME280;10356;50.544;9.642;2022-07-01T06:18:22;98237.03;;;16.77;79.26
20394;BME280;10356;50.544;9.642;2022-07-01T06:20:49;98256.97;;;16.79;78.79
20394;BME280;10356;50.544;9.642;2022-07-01T06:23:15;98270.78;;;16.82;78.79
20394;BME280;10356;50.544;9.642;2022-07-01T06:25:43;98272.31;;;16.92;77.94
20394;BME280;10356;50.544;9.642;2022-07-01T06:28:10;98269.34;;;16.95;77.27
20394;BME280;10356;50.544;9.642;2022-07-01T06:30:36;98277.59;;;16.92;76.97
20394;BME280;10356;50.544;9.642;2022-07-01T06:33:03;98278.00;;;16.79;76.98
20394;BME280;10356;50.544;9.642;2022-07-01T06:35:30;98275.50;;;16.70;76.73
20394;BME280;10356;50.544;9.642;2022-07-01T06:37:56;98280.06;;;16.60;77.25
20394;BME280;10356;50.544;9.642;2022-07-01T06:40:23;98287.00;;;16.69;76.97
20394;BME280;10356;50.544;9.642;2022-07-01T06:42:51;98292.16;;;16.78;75.91
20394;BME280;10356;50.544;9.642;2022-07-01T06:45:18;98289.53;;;16.78;76.81
20394;BME280;10356;50.544;9.642;2022-07-01T06:47:44;98282.47;;;16.87;75.95
20394;BME280;10356;50.544;9.642;2022-07-01T06:50:11;98289.75;;;16.93;75.89
20394;BME280;10356;50.544;9.642;2022-07-01T06:52:38;98283.25;;;17.13;74.86
20394;BME280;10356;50.544;9.642;2022-07-01T06:55:05;98271.47;;;17.33;74.45
20394;BME280;10356;50.544;9.642;2022-07-01T06:57:32;98273.47;;;17.47;73.48
20394;BME280;10356;50.544;9.642;2022-07-01T07:00:00;98279.06;;;17.36;72.03
20394;BME280;10356;50.544;9.642;2022-07-01T07:02:26;98285.09;;;17.13;72.98
20394;BME280;10356;50.544;9.642;2022-07-01T07:04:53;98297.09;;;17.15;73.48
20394;BME280;10356;50.544;9.642;2022-07-01T07:07:23;98292.91;;;17.38;73.15
20394;BME280;10356;50.544;9.642;2022-07-01T07:09:49;98293.16;;;17.53;72.26
20394;BME280;10356;50.544;9.642;2022-07-01T07:12:16;98300.09;;;17.70;71.29
20394;BME280;10356;50.544;9.642;2022-07-01T07:14:42;98306.50;;;17.76;70.17
20394;BME280;10356;50.544;9.642;2022-07-01T07:17:10;98305.69;;;17.67;70.43
20394;BME280;10356;50.544;9.642;2022-07-01T07:19:37;98303.72;;;17.77;70.40
20394;BME280;10356;50.544;9.642;2022-07-01T07:22:03;98301.44;;;17.98;69.56
20394;BME280;10356;50.544;9.642;2022-07-01T07:24:30;98313.97;;;17.96;68.72
20394;BME280;10356;50.544;9.642;2022-07-01T07:26:56;98310.00;;;18.08;68.89
20394;BME280;10356;50.544;9.642;2022-07-01T07:29:23;98323.19;;;18.16;67.42
20394;BME280;10356;50.544;9.642;2022-07-01T07:31:49;98315.16;;;18.10;67.93
20394;BME280;10356;50.544;9.642;2022-07-01T07:34:17;98313.16;;;18.20;67.55
20394;BME280;10356;50.544;9.642;2022-07-01T07:36:44;98310.56;;;18.44;66.93
20394;BME280;10356;50.544;9.642;2022-07-01T07:39:11;98315.66;;;18.54;65.62
20394;BME280;10356;50.544;9.642;2022-07-01T07:41:37;98318.28;;;18.46;65.18
20394;BME280;10356;50.544;9.642;2022-07-01T07:44:04;98328.19;;;18.52;65.20
20394;BME280;10356;50.544;9.642;2022-07-01T07:46:31;98320.44;;;18.50;64.70
20394;BME280;10356;50.544;9.642;2022-07-01T07:48:57;98328.00;;;18.61;64.60
20394;BME280;10356;50.544;9.642;2022-07-01T07:51:25;98323.03;;;18.74;63.83
20394;BME280;10356;50.544;9.642;2022-07-01T07:53:51;98326.69;;;18.57;64.04
20394;BME280;10356;50.544;9.642;2022-07-01T07:56:18;98332.41;;;18.77;64.03
20394;BME280;10356;50.544;9.642;2022-07-01T07:58:45;98334.25;;;18.84;62.95
20394;BME280;10356;50.544;9.642;2022-07-01T08:01:12;98329.75;;;18.93;62.40
20394;BME280;10356;50.544;9.642;2022-07-01T08:03:38;98340.97;;;18.95;62.57
20394;BME280;10356;50.544;9.642;2022-07-01T08:06:05;98343.44;;;18.96;62.01
20394;BME280;10356;50.544;9.642;2022-07-01T08:08:33;98341.41;;;19.14;61.62
20394;BME280;10356;50.544;9.642;2022-07-01T08:10:59;98341.38;;;19.22;61.16
20394;BME280;10356;50.544;9.642;2022-07-01T08:13:26;98349.94;;;19.41;61.64
20394;BME280;10356;50.544;9.642;2022-07-01T08:15:53;98361.38;;;19.64;60.85
20394;BME280;10356;50.544;9.642;2022-07-01T08:18:19;98366.63;;;19.72;58.26
20394;BME280;10356;50.544;9.642;2022-07-01T08:20:46;98359.34;;;19.74;58.59
20394;BME280;10356;50.544;9.642;2022-07-01T08:23:13;98359.25;;;19.67;59.22
20394;BME280;10356;50.544;9.642;2022-07-01T08:25:41;98360.16;;;19.44;59.19
20394;BME280;10356;50.544;9.642;2022-07-01T08:28:07;98363.84;;;19.18;60.38
20394;BME280;10356;50.544;9.642;2022-07-01T08:30:34;98372.09;;;19.15;60.44
20394;BME280;10356;50.544;9.642;2022-07-01T08:33:00;98367.25;;;18.88;60.37
20394;BME280;10356;50.544;9.642;2022-07-01T08:35:27;98366.91;;;18.83;61.56
20394;BME280;10356;50.544;9.642;2022-07-01T08:37:53;98377.47;;;18.83;61.17
20394;BME280;10356;50.544;9.642;2022-07-01T08:40:24;98386.91;;;18.70;62.10
20394;BME280;10356;50.544;9.642;2022-07-01T08:42:55;98383.25;;;18.55;61.95
20394;BME280;10356;50.544;9.642;2022-07-01T08:45:22;98392.81;;;18.39;62.27
20394;BME280;10356;50.544;9.642;2022-07-01T08:47:50;98392.31;;;18.36;62.68
20394;BME280;10356;50.544;9.642;2022-07-01T08:50:17;98400.53;;;18.33;63.01
20394;BME280;10356;50.544;9.642;2022-07-01T08:52:44;98391.63;;;18.18;63.47
20394;BME280;10356;50.544;9.642;2022-07-01T08:55:10;98390.31;;;18.06;64.36
20394;BME280;10356;50.544;9.642;2022-07-01T08:57:37;98384.19;;;17.97;64.18
20394;BME280;10356;50.544;9.642;2022-07-01T09:00:07;98395.69;;;17.88;66.44
20394;BME280;10356;50.544;9.642;2022-07-01T09:02:54;98382.16;;;17.83;69.63
20394;BME280;10356;50.544;9.642;2022-07-01T09:05:22;98394.78;;;17.72;70.88
20394;BME280;10356;50.544;9.642;2022-07-01T09:07:55;98391.38;;;17.45;74.32
20394;BME280;10356;50.544;9.642;2022-07-01T09:10:23;98399.41;;;17.36;75.78
20394;BME280;10356;50.544;9.642;2022-07-01T09:12:50;98404.13;;;17.24;77.52
20394;BME280;10356;50.544;9.642;2022-07-01T09:15:26;98409.50;;;17.15;77.80
20394;BME280;10356;50.544;9.642;2022-07-01T09:17:55;98422.00;;;17.13;78.50
20394;BME280;10356;50.544;9.642;2022-07-01T09:20:27;98427.47;;;16.94;79.91
20394;BME280;10356;50.544;9.642;2022-07-01T09:23:12;98418.94;;;16.74;80.06
20394;BME280;10356;50.544;9.642;2022-07-01T09:25:40;98409.53;;;16.71;80.40
20394;BME280;10356;50.544;9.642;2022-07-01T09:28:10;98406.63;;;16.57;83.13
20394;BME280;10356;50.544;9.642;2022-07-01T09:30:40;98395.66;;;16.61;81.89
20394;BME280;10356;50.544;9.642;2022-07-01T09:33:09;98406.69;;;16.65;82.23
20394;BME280;10356;50.544;9.642;2022-07-01T09:35:37;98402.41;;;16.64;83.09
20394;BME280;10356;50.544;9.642;2022-07-01T09:38:04;98409.47;;;16.63;82.87
20394;BME280;10356;50.544;9.642;2022-07-01T09:40:51;98413.38;;;16.59;83.15
20394;BME280;10356;50.544;9.642;2022-07-01T09:43:21;98415.63;;;16.54;83.96
20394;BME280;10356;50.544;9.642;2022-07-01T09:45:59;98422.25;;;16.58;83.93
20394;BME280;10356;50.544;9.642;2022-07-01T09:48:41;98425.34;;;16.54;83.67
20394;BME280;10356;50.544;9.642;2022-07-01T09:51:09;98435.88;;;16.54;83.46
20394;BME280;10356;50.544;9.642;2022-07-01T09:53:37;98435.56;;;16.57;83.42
20394;BME280;10356;50.544;9.642;2022-07-01T09:56:04;98446.81;;;16.67;83.48
20394;BME280;10356;50.544;9.642;2022-07-01T09:58:30;98455.72;;;16.66;83.06
20394;BME280;10356;50.544;9.642;2022-07-01T10:00:59;98463.75;;;16.82;83.90
20394;BME280;10356;50.544;9.642;2022-07-01T10:03:26;98456.88;;;16.89;84.16
20394;BME280;10356;50.544;9.642;2022-07-01T10:05:55;98462.25;;;17.05;84.80
20394;BME280;10356;50.544;9.642;2022-07-01T10:08:36;98463.59;;;17.09;81.48
20394;BME280;10356;50.544;9.642;2022-07-01T10:11:30;98470.94;;;17.23;84.88
20394;BME280;10356;50.544;9.642;2022-07-01T10:14:07;98484.50;;;17.54;83.33
20394;BME280;10356;50.544;9.642;2022-07-01T10:16:36;98480.72;;;17.56;83.75
20394;BME280;10356;50.544;9.642;2022-07-01T10:19:16;98483.44;;;17.73;84.13
20394;BME280;10356;50.544;9.642;2022-07-01T10:21:51;98477.94;;;18.00;82.28
20394;BME280;10356;50.544;9.642;2022-07-01T10:24:19;98466.47;;;18.17;77.76
20394;BME280;10356;50.544;9.642;2022-07-01T10:26:46;98452.34;;;18.34;80.36
20394;BME280;10356;50.544;9.642;2022-07-01T10:29:30;98457.66;;;18.50;77.77
20394;BME280;10356;50.544;9.642;2022-07-01T10:32:07;98472.53;;;18.75;76.67
20394;BME280;10356;50.544;9.642;2022-07-01T10:34:36;98480.78;;;18.64;75.73
20394;BME280;10356;50.544;9.642;2022-07-01T10:37:05;98477.78;;;18.51;76.13
20394;BME280;10356;50.544;9.642;2022-07-01T10:39:54;98482.97;;;18.27;74.49
20394;BME280;10356;50.544;9.642;2022-07-01T10:42:27;98483.63;;;18.21;73.66
20394;BME280;10356;50.544;9.642;2022-07-01T10:45:05;98477.06;;;18.33;76.29
20394;BME280;10356;50.544;9.642;2022-07-01T10:47:33;98472.06;;;18.14;75.60
20394;BME280;10356;50.544;9.642;2022-07-01T10:50:07;98464.81;;;18.08;76.27
20394;BME280;10356;50.544;9.642;2022-07-01T10:52:34;98452.22;;;18.02;77.01
20394;BME280;10356;50.544;9.642;2022-07-01T10:55:02;98456.56;;;18.11;76.75
20394;BME280;10356;50.544;9.642;2022-07-01T10:57:31;98450.34;;;18.20;75.35
20394;BME280;10356;50.544;9.642;2022-07-01T11:00:28;98469.13;;;18.33;75.30
20394;BME280;10356;50.544;9.642;2022-07-01T11:03:19;98467.66;;;18.38;75.00
20394;BME280;10356;50.544;9.642;2022-07-01T11:05:49;98466.34;;;18.42;76.36
20394;BME280;10356;50.544;9.642;2022-07-01T11:08:17;98473.34;;;18.52;75.64
20394;BME280;10356;50.544;9.642;2022-07-01T11:10:43;98489.34;;;18.50;74.38
20394;BME280;10356;50.544;9.642;2022-07-01T11:13:13;98493.63;;;18.59;73.66
20394;BME280;10356;50.544;9.642;2022-07-01T11:15:43;98497.41;;;18.65;75.74
20394;BME280;10356;50.544;9.642;2022-07-01T11:18:13;98508.78;;;18.49;76.66
20394;BME280;10356;50.544;9.642;2022-07-01T11:20:40;98522.63;;;18.43;78.69
20394;BME280;10356;50.544;9.642;2022-07-01T11:23:07;98520.28;;;18.40;77.74
20394;BME280;10356;50.544;9.642;2022-07-01T11:25:33;98518.38;;;18.50;75.35
20394;BME280;10356;50.544;9.642;2022-07-01T11:28:00;98510.13;;;18.53;76.38
20394;BME280;10356;50.544;9.642;2022-07-01T11:30:27;98499.56;;;18.69;76.83
20394;BME280;10356;50.544;9.642;2022-07-01T11:32:56;98500.59;;;18.84;75.48
20394;BME280;10356;50.544;9.642;2022-07-01T11:35:26;98502.41;;;18.76;74.42
20394;BME280;10356;50.544;9.642;2022-07-01T11:38:12;98492.31;;;18.71;75.04
20394;BME280;10356;50.544;9.642;2022-07-01T11:40:58;98482.09;;;18.68;74.55
20394;BME280;10356;50.544;9.642;2022-07-01T11:43:27;98480.78;;;18.88;74.90
20394;BME280;10356;50.544;9.642;2022-07-01T11:45:54;98492.31;;;18.87;72.88
20394;BME280;10356;50.544;9.642;2022-07-01T11:48:38;98494.66;;;18.74;71.86
20394;BME280;10356;50.544;9.642;2022-07-01T11:51:09;98503.06;;;18.78;72.69
20394;BME280;10356;50.544;9.642;2022-07-01T11:53:37;98496.94;;;18.69;73.44
20394;BME280;10356;50.544;9.642;2022-07-01T11:56:04;98500.22;;;18.63;74.32
20394;BME280;10356;50.544;9.642;2022-07-01T11:58:45;98504.19;;;18.59;72.07
20394;BME280;10356;50.544;9.642;2022-07-01T12:01:20;98511.38;;;18.41;72.37
20394;BME280;10356;50.544;9.642;2022-07-01T12:03:46;98513.69;;;18.36;74.15
20394;BME280;10356;50.544;9.642;2022-07-01T12:06:14;98507.47;;;18.53;74.05
20394;BME280;10356;50.544;9.642;2022-07-01T12:08:42;98515.00;;;18.40;74.43
20394;BME280;10356;50.544;9.642;2022-07-01T12:11:10;98513.31;;;18.31;74.58
20394;BME280;10356;50.544;9.642;2022-07-01T12:13:37;98502.28;;;18.35;74.15
20394;BME280;10356;50.544;9.642;2022-07-01T12:16:08;98494.53;;;18.26;76.00
20394;BME280;10356;50.544;9.642;2022-07-01T12:18:34;98496.81;;;18.21;75.82
20394;BME280;10356;50.544;9.642;2022-07-01T12:21:01;98502.91;;;18.13;74.83
20394;BME280;10356;50.544;9.642;2022-07-01T12:23:29;98508.34;;;18.12;71.87
20394;BME280;10356;50.544;9.642;2022-07-01T12:25:58;98520.53;;;18.13;71.90
20394;BME280;10356;50.544;9.642;2022-07-01T12:28:29;98516.22;;;18.04;73.03
20394;BME280;10356;50.544;9.642;2022-07-01T12:31:00;98512.28;;;18.08;71.86
20394;BME280;10356;50.544;9.642;2022-07-01T12:33:27;98515.47;;;18.27;71.59
20394;BME280;10356;50.544;9.642;2022-07-01T12:35:54;98519.03;;;18.52;71.11
20394;BME280;10356;50.544;9.642;2022-07-01T12:38:21;98523.19;;;18.87;70.39
20394;BME280;10356;50.544;9.642;2022-07-01T12:40:48;98507.19;;;19.28;66.61
20394;BME280;10356;50.544;9.642;2022-07-01T12:43:25;98521.84;;;19.71;64.72
20394;BME280;10356;50.544;9.642;2022-07-01T12:45:55;98517.63;;;19.93;62.36
20394;BME280;10356;50.544;9.642;2022-07-01T12:48:22;98517.44;;;20.41;60.16
20394;BME280;10356;50.544;9.642;2022-07-01T12:50:52;98521.34;;;21.07;60.11
20394;BME280;10356;50.544;9.642;2022-07-01T12:53:19;98521.59;;;20.89;58.34
20394;BME280;10356;50.544;9.642;2022-07-01T12:55:49;98513.22;;;20.77;56.82
20394;BME280;10356;50.544;9.642;2022-07-01T12:58:17;98515.34;;;20.82;59.33
20394;BME280;10356;50.544;9.642;2022-07-01T13:00:46;98522.13;;;20.84;59.29
20394;BME280;10356;50.544;9.642;2022-07-01T13:03:14;98518.53;;;20.77;59.17
20394;BME280;10356;50.544;9.642;2022-07-01T13:05:43;98515.47;;;20.66;61.30
20394;BME280;10356;50.544;9.642;2022-07-01T13:08:10;98519.22;;;20.71;58.80